Observations for NAPLES CAPODICHINO, Italy (LIRN)

LIRN 141150Z 09003KT 9999 -RA FEW015 BKN060 13/13 Q1008 NOSIG   
LIRN 141120Z VRB02KT 7000 -RA SCT015 BKN040 13/12 Q1009 RERA NOSIG  
LIRN 141050Z VRB01KT 5000 RA SCT015 BKN040 13/12 Q1009 NOSIG
LIRN 141020Z 36004KT 290V050 9999 -RA SCT015 BKN045 13/12 Q1009 NOSIG   
LIRN 140950Z 34005KT 300V010 8000 -RA SCT015 BKN045 13/12 Q1009 NOSIG   
LIRN 140920Z 33008KT 300V010 9999 -RA SCT015 BKN045 13/11 Q1009 NOSIG   
LIRN 140850Z 02003KT 340V060 9999 -RA SCT020 BKN060 14/12 Q1008 NOSIG   
LIRN 140820Z 08003KT 9999 -RA SCT020 BKN060 13/12 Q1008 NOSIG   
LIRN 140750Z 05004KT 360V090 9999 -RA SCT025 BKN050 13/11 Q1008 NOSIG   
LIRN 140720Z 06004KT 9999 -RA SCT025 BKN050 13/12 Q1008 NOSIG   
LIRN 140650Z VRB01KT 9999 -RA SCT020 BKN050 12/11 Q1008 NOSIG   
LIRN 140620Z 09002KT 9999 -RA SCT020 BKN045 12/11 Q1008 NOSIG   
LIRN 140550Z 05004KT 350V080 7000 -RA SCT020 BKN050 12/11 Q1007 NOSIG   
LIRN 140520Z VRB04KT 5000 -RA SCT020 BKN040 12/11 Q1007 RESHRA NOSIG
LIRN 140450Z 33007KT 5000 SHRA BKN030 12/11 Q1007 NOSIG 
LIRN 140420Z 07005KT 9999 FEW030 12/10 Q1007 NOSIG  
LIRN 140350Z 06003KT 9999 SCT030 12/10 Q1007 NOSIG  
LIRN 140320Z 08004KT 9999 SCT030 12/10 Q1007 NOSIG  
LIRN 140250Z 04002KT 9999 SCT030 12/10 Q1007 NOSIG  
LIRN 140220Z 04003KT 9999 SCT030 12/10 Q1007 NOSIG  
LIRN 140150Z 34005KT 270V030 9999 SCT030 12/10 Q1007 NOSIG  
LIRN 140120Z 04003KT 9999 SCT030 12/09 Q1007 NOSIG  
LIRN 140050Z VRB01KT 9999 SCT030 11/10 Q1007 NOSIG  
LIRN 140020Z 04003KT 9999 SCT030 11/09 Q1007 NOSIG  
LIRN 132350Z VRB02KT 9999 SCT030 11/09 Q1007 NOSIG  
LIRN 132320Z VRB02KT 9999 SCT030 11/09 Q1007 NOSIG  
LIRN 132250Z 02002KT 9999 SCT030 11/09 Q1007 NOSIG  
LIRN 132220Z VRB01KT 9999 SCT030 11/09 Q1007 NOSIG  
LIRN 132150Z VRB01KT 9999 FEW040 12/09 Q1007 NOSIG  
LIRN 132120Z 09003KT 9999 SCT040 12/09 Q1007 NOSIG  
LIRN 132050Z 09004KT 060V170 9999 FEW040 13/09 Q1007 NOSIG  
LIRN 132020Z 29003KT 250V340 9999 FEW040 13/09 Q1007 NOSIG  
LIRN 131950Z 32004KT 9999 SCT040 13/09 Q1007 NOSIG  
LIRN 131920Z 26006KT 230V310 9999 -RA SCT040 14/09 Q1007 NOSIG  
LIRN 131850Z 24004KT 9999 FEW040 15/08 Q1007 NOSIG  
LIRN 131820Z 27004KT 9999 FEW040 13/08 Q1007 NOSIG  
LIRN 131750Z 27006KT 9999 SCT040 12/08 Q1007 NOSIG  
LIRN 131720Z 27006KT 9999 SCT040 13/08 Q1006 NOSIG  
LIRN 131650Z 25005KT 9999 SCT040 14/08 Q1006 NOSIG  
LIRN 131620Z 25007KT 9999 SCT040 14/08 Q1005 NOSIG  
LIRN 131550Z 26008KT 9999 FEW020 SCT040 14/09 Q1005 NOSIG   
LIRN 131520Z 26010KT 9999 FEW020 SCT040 15/08 Q1004 NOSIG   
LIRN 131450Z 26009KT 9999 FEW020 SCT040 17/10 Q1004 NOSIG   
LIRN 131420Z 26013KT 9999 FEW020 SCT040 17/10 Q1004 NOSIG   
LIRN 131350Z 25009KT 210V270 9999 SCT040 17/09 Q1003 NOSIG  
LIRN 131320Z 26011KT 9999 FEW025 SCT050 18/10 Q1003 NOSIG   
LIRN 131250Z 26015KT 230V290 9999 FEW025 BKN050 17/09 Q1003 NOSIG   
LIRN 131220Z 27012KT 9999 FEW025 BKN050 18/12 Q1002 NOSIG   
LIRN 131150Z 26010KT 9999 -RA SCT025 BKN050 16/13 Q1002 NOSIG   
LIRN 131120Z 25008KT 9999 -RA SCT025 BKN050 16/12 Q1002 NOSIG